Time;durP1;ratioP1;P1;durP2;ratioP2;P2;SDS_P1;SDS_P2;PMS_P1;PMS_P2;Temp;Humidity;BMP_temperature;BMP_pressure;BME280_temperature;BME280_humidity;BME280_pressure;Samples;Min_cycle;Max_cycle;Signal;HPM_P1;HPM_P2
2023/01/05 00:01:20;;;;;;;29.27;5.22;;;;;;;9.45;100.00;101519.09;5014918;28;20475;-65
2023/01/05 00:03:45;;;;;;;24.63;5.25;;;;;;;9.45;100.00;101513.94;5013466;28;20018;-65
2023/01/05 00:06:18;;;;;;;21.05;4.88;;;;;;;9.45;100.00;101520.00;5011304;28;20038;-65
2023/01/05 00:08:44;;;;;;;21.65;4.95;;;;;;;9.46;100.00;101520.91;5011103;28;20440;-65
2023/01/05 00:22:31;;;;;;;26.58;5.05;;;;;;;9.41;100.00;101530.16;5028132;28;20056;-65
2023/01/05 00:25:00;;;;;;;24.42;5.10;;;;;;;9.40;100.00;101520.59;5010885;28;20412;-65
2023/01/05 00:27:26;;;;;;;20.38;4.85;;;;;;;9.38;100.00;101525.69;5011076;28;20025;-65
2023/01/05 00:29:52;;;;;;;24.17;6.60;;;;;;;9.35;100.00;101534.19;5022552;28;20033;-65
2023/01/05 00:32:17;;;;;;;23.00;4.85;;;;;;;9.34;100.00;101532.41;5025550;28;20028;-65
2023/01/05 00:34:54;;;;;;;22.73;4.32;;;;;;;9.33;100.00;101540.13;5015610;28;20037;-65
2023/01/05 00:37:23;;;;;;;22.85;5.03;;;;;;;9.31;100.00;101521.03;5013277;28;20034;-65
2023/01/05 00:39:49;;;;;;;22.52;5.13;;;;;;;9.30;100.00;101522.72;5015743;28;20034;-65
2023/01/05 00:42:21;;;;;;;22.13;5.70;;;;;;;9.28;100.00;101524.38;5015018;28;20072;-65
2023/01/05 00:44:46;;;;;;;24.83;5.25;;;;;;;9.25;100.00;101501.84;5013626;28;20125;-65
2023/01/05 00:47:12;;;;;;;23.17;5.03;;;;;;;9.24;100.00;101525.94;5014639;28;20550;-65
2023/01/05 00:49:39;;;;;;;21.58;4.90;;;;;;;9.22;100.00;101526.66;5014356;28;20029;-65
2023/01/05 00:52:05;;;;;;;19.77;4.97;;;;;;;9.21;100.00;101530.06;5013913;28;20125;-65
2023/01/05 00:54:30;;;;;;;24.85;6.25;;;;;;;9.18;100.00;101535.97;5012344;28;20033;-65
2023/01/05 00:56:55;;;;;;;25.77;5.20;;;;;;;9.16;100.00;101531.50;5012770;28;20030;-65
2023/01/05 00:59:21;;;;;;;21.15;5.55;;;;;;;9.13;100.00;101533.16;5012211;28;20025;-65
2023/01/05 01:01:48;;;;;;;23.02;5.00;;;;;;;9.12;100.00;101536.53;5007958;28;20231;-65
2023/01/05 01:04:14;;;;;;;21.60;4.88;;;;;;;9.10;100.00;101535.56;5019586;28;20030;-65
2023/01/05 01:06:39;;;;;;;20.15;5.13;;;;;;;9.09;100.00;101546.75;5019547;28;20025;-65
2023/01/05 01:09:05;;;;;;;20.45;5.05;;;;;;;9.07;100.00;101531.94;5014306;28;20029;-65
2023/01/05 01:11:30;;;;;;;21.35;4.75;;;;;;;9.03;100.00;101536.09;5026752;28;20064;-65
2023/01/05 01:13:56;;;;;;;19.35;4.75;;;;;;;9.00;100.00;101535.94;5025124;28;20508;-65
2023/01/05 01:16:22;;;;;;;20.33;5.10;;;;;;;8.97;100.00;101551.31;5026520;28;20025;-65
2023/01/05 01:18:47;;;;;;;21.02;5.85;;;;;;;8.95;100.00;101540.00;5025040;28;20033;-65
2023/01/05 01:21:13;;;;;;;27.15;5.45;;;;;;;8.92;100.00;101547.59;5024252;28;20140;-65
2023/01/05 01:23:38;;;;;;;25.50;5.53;;;;;;;8.88;100.00;101534.53;5023724;28;20028;-65
2023/01/05 01:26:04;;;;;;;19.63;4.88;;;;;;;8.86;100.00;101545.59;5023991;28;20532;-65
2023/01/05 01:28:30;;;;;;;22.15;5.53;;;;;;;8.84;100.00;101544.63;5024039;28;20033;-65
2023/01/05 01:30:56;;;;;;;23.58;5.18;;;;;;;8.82;100.00;101547.13;5026758;28;20021;-65
2023/01/05 01:33:21;;;;;;;18.08;4.40;;;;;;;8.80;100.00;101550.44;5026906;28;20044;-65
2023/01/05 01:35:46;;;;;;;24.30;5.18;;;;;;;8.77;100.00;101558.94;5011749;28;20037;-65
2023/01/05 01:38:12;;;;;;;27.90;6.13;;;;;;;8.75;100.00;101561.44;5007788;28;20025;-65
2023/01/05 01:40:39;;;;;;;19.17;4.38;;;;;;;8.72;100.00;101556.13;5006346;28;20036;-65
2023/01/05 01:43:11;;;;;;;18.80;5.20;;;;;;;8.71;100.00;101568.94;5006037;28;20201;-65
2023/01/05 01:45:37;;;;;;;19.67;4.35;;;;;;;8.68;100.00;101564.53;5019851;28;20285;-65
2023/01/05 01:48:02;;;;;;;21.67;5.53;;;;;;;8.66;100.00;101571.31;5007061;28;20549;-66
2023/01/05 01:50:32;;;;;;;19.75;4.47;;;;;;;8.64;100.00;101573.81;5006585;28;20017;-65
2023/01/05 01:53:15;;;;;;;21.80;4.93;;;;;;;8.63;100.00;101574.59;5016274;28;20491;-65
2023/01/05 01:55:41;;;;;;;18.40;4.05;;;;;;;8.63;100.00;101572.03;5024167;28;20539;-65
2023/01/05 01:58:12;;;;;;;19.13;5.53;;;;;;;8.61;100.00;101576.25;5025962;28;20466;-65
2023/01/05 02:00:40;;;;;;;15.00;3.87;;;;;;;8.61;100.00;101572.78;5011026;28;20033;-65
2023/01/05 02:03:05;;;;;;;24.15;4.30;;;;;;;8.61;100.00;101578.84;5019406;28;20116;-65
2023/01/05 02:05:33;;;;;;;22.23;4.63;;;;;;;8.63;100.00;101589.25;5015279;28;20189;-65
2023/01/05 02:07:59;;;;;;;26.65;5.65;;;;;;;8.63;100.00;101582.34;5020161;28;20021;-65
2023/01/05 02:10:46;;;;;;;26.52;5.20;;;;;;;8.63;100.00;101587.53;5016438;28;20029;-65
2023/01/05 02:13:50;;;;;;;24.50;5.35;;;;;;;8.65;100.00;101597.97;5029428;28;20044;-65
2023/01/05 02:16:48;;;;;;;22.65;4.35;;;;;;;8.68;100.00;101595.53;4991503;28;20499;-65
2023/01/05 02:19:30;;;;;;;26.98;4.88;;;;;;;8.68;100.00;101595.53;5007456;28;20037;-66
2023/01/05 02:22:39;;;;;;;19.75;5.15;;;;;;;8.71;100.00;101594.78;5028081;28;20067;-65
2023/01/05 02:25:38;;;;;;;23.95;5.40;;;;;;;8.71;100.00;101594.78;5027217;28;20104;-65
2023/01/05 02:28:06;;;;;;;27.45;6.03;;;;;;;8.73;100.00;101603.50;5027750;28;20105;-65
2023/01/05 02:30:59;;;;;;;24.42;5.03;;;;;;;8.75;100.00;101607.06;5028932;28;20114;-66
2023/01/05 02:34:01;;;;;;;22.00;5.30;;;;;;;8.75;100.00;101601.91;5017026;28;20091;-65
2023/01/05 02:36:42;;;;;;;25.73;4.88;;;;;;;8.77;100.00;101602.88;5013769;28;20553;-65
2023/01/05 02:39:17;;;;;;;22.70;4.88;;;;;;;8.79;100.00;101602.94;5023128;28;20061;-65
2023/01/05 02:42:11;;;;;;;28.23;5.40;;;;;;;8.78;100.00;101609.81;5010605;28;20426;-65
2023/01/05 02:44:36;;;;;;;28.50;5.53;;;;;;;8.79;100.00;101598.69;5010648;28;20034;-66
2023/01/05 02:47:23;;;;;;;28.30;6.07;;;;;;;8.80;100.00;101603.03;5011352;28;20334;-65
2023/01/05 02:49:50;;;;;;;22.95;4.63;;;;;;;8.80;100.00;101595.28;5010368;28;20502;-65
2023/01/05 02:52:17;;;;;;;26.70;4.95;;;;;;;8.80;100.00;101595.28;5028478;28;20045;-66
2023/01/05 02:54:49;;;;;;;23.52;5.25;;;;;;;8.83;100.00;101604.91;5027971;28;20076;-65
2023/01/05 02:57:18;;;;;;;27.83;6.00;;;;;;;8.84;100.00;101612.72;5028788;28;20017;-65
2023/01/05 02:59:49;;;;;;;22.73;6.63;;;;;;;8.85;100.00;101604.16;5028214;28;20076;-65
2023/01/05 03:02:24;;;;;;;18.88;4.43;;;;;;;8.86;100.00;101605.94;5028384;28;20034;-65
2023/01/05 03:05:03;;;;;;;23.83;5.40;;;;;;;8.86;100.00;101610.22;5027161;28;20028;-65
2023/01/05 03:07:34;;;;;;;21.50;4.97;;;;;;;8.87;100.00;101602.53;5028351;28;20052;-65
2023/01/05 03:13:39;;;;;;;22.08;4.63;;;;;;;8.90;100.00;101612.16;5015631;28;20492;-65
2023/01/05 03:15:35;;;;;;;26.23;5.80;;;;;;;8.93;100.00;101611.41;5027527;28;20144;-66
2023/01/05 03:18:06;;;;;;;21.98;5.22;;;;;;;8.95;100.00;101612.38;5027525;28;20029;-65
2023/01/05 03:20:34;;;;;;;26.70;5.40;;;;;;;8.94;100.00;101611.47;5026313;28;20045;-65
2023/01/05 03:37:25;;;;;;;20.42;5.15;;;;;;;8.94;100.00;101610.63;5021701;28;20456;-65
2023/01/05 03:39:50;;;;;;;25.90;6.20;;;;;;;8.95;100.00;101615.88;5007706;28;20030;-65
2023/01/05 03:42:16;;;;;;;21.88;4.25;;;;;;;8.97;100.00;101623.69;5008561;28;20034;-65
2023/01/05 03:44:44;;;;;;;16.02;5.22;;;;;;;8.97;100.00;101614.25;5025403;28;20496;-65
2023/01/05 03:47:10;;;;;;;24.45;4.57;;;;;;;8.98;100.00;101615.13;5027951;28;20397;-65
2023/01/05 03:49:36;;;;;;;20.15;4.53;;;;;;;8.97;100.00;101616.84;5027767;28;20025;-65
2023/01/05 03:52:01;;;;;;;22.77;5.15;;;;;;;8.98;100.00;101610.84;5027502;28;20049;-65
2023/01/05 03:54:27;;;;;;;21.73;4.75;;;;;;;8.99;100.00;101612.59;5026352;28;20033;-65
2023/01/05 03:56:52;;;;;;;24.63;4.93;;;;;;;8.99;100.00;101606.56;5026630;28;20045;-65
2023/01/05 03:59:18;;;;;;;18.08;4.72;;;;;;;9.00;100.00;101613.50;5023952;28;20056;-65
2023/01/05 04:01:43;;;;;;;25.25;4.85;;;;;;;9.01;100.00;101623.03;5026775;28;20029;-65
2023/01/05 04:04:08;;;;;;;18.23;4.85;;;;;;;9.02;100.00;101622.22;5024094;28;20047;-66
2023/01/05 04:06:34;;;;;;;16.90;4.10;;;;;;;9.01;100.00;101621.31;5025582;28;20053;-65
2023/01/05 04:08:59;;;;;;;20.70;4.93;;;;;;;9.03;100.00;101618.81;5022921;28;20366;-66
2023/01/05 04:11:24;;;;;;;25.73;5.70;;;;;;;9.04;100.00;101619.72;5025006;28;20063;-65
2023/01/05 04:13:58;;;;;;;21.10;4.97;;;;;;;9.05;100.00;101616.34;5020316;28;20021;-65
2023/01/05 04:16:27;;;;;;;20.35;4.97;;;;;;;9.05;100.00;101612.03;5023444;28;20416;-65
2023/01/05 04:18:53;;;;;;;27.50;5.63;;;;;;;9.05;100.00;101609.44;5024909;28;20025;-65
2023/01/05 04:21:21;;;;;;;30.88;5.05;;;;;;;9.06;100.00;101619.00;5022931;28;20500;-66
2023/01/05 04:23:46;;;;;;;20.30;4.32;;;;;;;9.07;100.00;101628.50;5003608;28;20061;-65
2023/01/05 04:26:11;;;;;;;27.33;5.65;;;;;;;9.08;100.00;101625.13;5022729;28;20094;-65
2023/01/05 04:28:37;;;;;;;26.23;5.10;;;;;;;9.08;100.00;101627.72;5025654;28;20029;-65
2023/01/05 04:31:02;;;;;;;24.17;5.00;;;;;;;9.08;100.00;101632.91;5022836;28;20030;-65
2023/01/05 04:33:27;;;;;;;22.45;5.53;;;;;;;9.09;100.00;101632.06;5008534;28;20045;-65
2023/01/05 04:35:53;;;;;;;20.13;5.43;;;;;;;9.09;100.00;101621.72;5021359;28;20021;-65
2023/01/05 04:38:18;;;;;;;17.25;4.50;;;;;;;9.10;100.00;101620.91;5010066;28;20026;-65
2023/01/05 04:40:50;;;;;;;25.52;4.75;;;;;;;9.12;100.00;101621.88;5010633;28;20034;-65
2023/01/05 04:43:17;;;;;;;24.17;4.18;;;;;;;9.10;100.00;101626.06;5010626;28;20030;-65
2023/01/05 04:45:46;;;;;;;26.73;5.25;;;;;;;9.11;100.00;101635.63;5010482;28;20029;-65
2023/01/05 04:48:11;;;;;;;25.73;5.10;;;;;;;9.13;100.00;101630.53;5010019;28;20330;-65
2023/01/05 04:50:36;;;;;;;24.40;5.57;;;;;;;9.15;100.00;101634.09;5010116;28;20030;-65
2023/01/05 04:53:02;;;;;;;21.50;5.57;;;;;;;9.15;100.00;101631.50;5011053;28;20073;-65
2023/01/05 04:55:28;;;;;;;21.45;4.57;;;;;;;9.16;100.00;101633.25;5011391;28;20053;-65
2023/01/05 04:57:53;;;;;;;21.05;4.22;;;;;;;9.17;100.00;101639.34;5014763;28;20121;-65
2023/01/05 05:00:18;;;;;;;21.58;4.97;;;;;;;9.16;100.00;101630.69;5011329;28;20029;-65
2023/01/05 05:02:44;;;;;;;26.52;5.57;;;;;;;9.15;100.00;101628.91;5014100;28;20034;-66
2023/01/05 05:05:09;;;;;;;24.80;5.53;;;;;;;9.16;100.00;101634.94;5011737;28;20510;-65
2023/01/05 05:07:35;;;;;;;24.17;5.43;;;;;;;9.16;100.00;101630.69;5014468;28;20029;-65
2023/01/05 05:10:00;;;;;;;24.35;5.53;;;;;;;9.18;100.00;101634.22;5010686;28;20040;-66
2023/01/05 05:12:25;;;;;;;22.58;4.57;;;;;;;9.20;100.00;101640.38;5023080;28;20397;-65
2023/01/05 05:14:51;;;;;;;24.25;6.07;;;;;;;9.20;100.00;101652.41;5010367;28;20038;-65
2023/01/05 05:17:16;;;;;;;24.73;5.03;;;;;;;9.19;100.00;101646.34;5012060;28;20111;-65
2023/01/05 05:19:42;;;;;;;21.60;4.80;;;;;;;9.20;100.00;101652.41;5008448;28;20026;-65
2023/01/05 05:22:07;;;;;;;22.25;5.47;;;;;;;9.20;100.00;101657.59;5010669;28;20033;-65
2023/01/05 05:24:32;;;;;;;24.25;4.82;;;;;;;9.21;100.00;101654.22;5012584;28;20470;-65
2023/01/05 05:26:57;;;;;;;27.17;5.50;;;;;;;9.22;100.00;101667.22;5017526;28;20021;-65
2023/01/05 05:29:24;;;;;;;27.20;5.82;;;;;;;9.22;100.00;101672.38;5025129;28;20474;-66
2023/01/05 05:31:50;;;;;;;28.88;6.10;;;;;;;9.23;100.00;101678.41;5027492;28;20303;-65
2023/01/05 05:34:15;;;;;;;21.83;4.43;;;;;;;9.22;100.00;101653.38;5014597;28;20488;-66
2023/01/05 05:36:41;;;;;;;18.38;5.15;;;;;;;9.23;100.00;101660.31;5011054;28;20125;-65
2023/01/05 05:39:07;;;;;;;21.00;5.15;;;;;;;9.23;100.00;101668.97;5012788;28;20033;-65
2023/01/05 05:41:32;;;;;;;22.92;5.55;;;;;;;9.25;100.00;101679.38;5019471;28;20040;-65
2023/01/05 05:44:01;;;;;;;21.05;4.75;;;;;;;9.24;100.00;101675.03;5010197;28;20030;-65
2023/01/05 05:46:27;;;;;;;23.95;5.90;;;;;;;9.24;100.00;101675.03;5028684;28;20029;-65
2023/01/05 05:48:53;;;;;;;26.23;5.43;;;;;;;9.25;100.00;101677.69;5030471;28;20064;-65
2023/01/05 05:51:19;;;;;;;21.23;4.82;;;;;;;9.25;100.00;101677.69;5030531;28;20157;-65
2023/01/05 05:53:44;;;;;;;17.92;4.57;;;;;;;9.24;100.00;101678.53;5030150;28;20029;-65
2023/01/05 05:56:09;;;;;;;20.02;4.82;;;;;;;9.24;100.00;101682.81;5029183;28;20063;-65
2023/01/05 05:58:34;;;;;;;21.38;4.30;;;;;;;9.22;100.00;101687.91;5019376;28;20034;-66
2023/01/05 06:01:00;;;;;;;24.90;4.85;;;;;;;9.23;100.00;101693.94;5014161;28;20033;-65
2023/01/05 06:03:25;;;;;;;19.98;4.47;;;;;;;9.23;100.00;101701.69;5010507;28;20037;-65
2023/01/05 06:05:51;;;;;;;24.15;5.65;;;;;;;9.22;100.00;101702.53;5014856;28;20018;-65
2023/01/05 06:08:17;;;;;;;24.80;5.43;;;;;;;9.24;100.00;101706.06;5014334;28;20079;-66
2023/01/05 06:10:42;;;;;;;24.10;4.68;;;;;;;9.24;100.00;101700.91;5014632;28;20018;-66
2023/01/05 06:13:07;;;;;;;29.92;6.43;;;;;;;9.25;100.00;101707.84;5013427;28;20022;-65
2023/01/05 06:15:32;;;;;;;23.77;4.63;;;;;;;9.25;100.00;101707.84;5013558;28;20532;-65
2023/01/05 06:17:58;;;;;;;20.65;5.13;;;;;;;9.24;100.00;101712.16;5013016;28;20017;-65
2023/01/05 06:20:23;;;;;;;25.00;5.47;;;;;;;9.23;100.00;101714.63;5010250;28;20075;-66
2023/01/05 06:22:48;;;;;;;29.20;6.80;;;;;;;9.21;100.00;101708.50;5013232;28;20029;-65
2023/01/05 06:25:14;;;;;;;28.50;6.00;;;;;;;9.21;100.00;101726.63;5013605;28;20136;-65
2023/01/05 06:27:39;;;;;;;23.42;4.90;;;;;;;9.21;100.00;101724.03;5013916;28;20022;-65
2023/01/05 06:30:05;;;;;;;28.13;6.10;;;;;;;9.21;100.00;101726.63;5021556;28;20538;-66
2023/01/05 06:32:31;;;;;;;21.60;4.53;;;;;;;9.22;100.00;101730.97;5025611;28;20064;-66
2023/01/05 06:34:56;;;;;;;23.20;5.00;;;;;;;9.21;100.00;101736.97;5018126;28;20033;-65
2023/01/05 06:37:21;;;;;;;21.65;5.60;;;;;;;9.22;100.00;101741.31;5015782;28;20021;-65
2023/01/05 06:39:46;;;;;;;17.75;5.13;;;;;;;9.20;100.00;101735.16;5012349;28;20389;-65
2023/01/05 06:42:12;;;;;;;24.30;4.95;;;;;;;9.19;100.00;101742.03;5017537;28;20036;-65
2023/01/05 06:44:37;;;;;;;26.27;5.55;;;;;;;9.19;100.00;101734.28;5020953;28;20026;-65
2023/01/05 06:47:02;;;;;;;24.83;5.57;;;;;;;9.19;100.00;101754.09;5016097;28;20028;-66
2023/01/05 06:49:28;;;;;;;23.17;5.03;;;;;;;9.17;100.00;101755.69;5015881;28;20117;-65
2023/01/05 06:51:53;;;;;;;27.17;5.50;;;;;;;9.16;100.00;101764.25;5010046;28;20041;-65
2023/01/05 06:54:19;;;;;;;28.98;6.43;;;;;;;9.15;100.00;101763.38;5011600;28;20021;-65
2023/01/05 06:56:44;;;;;;;27.50;5.90;;;;;;;9.15;100.00;101760.81;5010340;28;20675;-65
2023/01/05 06:59:11;;;;;;;26.73;6.82;;;;;;;9.13;100.00;101768.47;5014374;28;20025;-65
2023/01/05 07:01:36;;;;;;;29.30;6.60;;;;;;;9.15;100.00;101770.25;5012611;28;20572;-65
2023/01/05 07:04:02;;;;;;;28.15;6.60;;;;;;;9.14;100.00;101771.94;5011161;28;20018;-65
2023/01/05 07:06:27;;;;;;;30.58;6.18;;;;;;;9.13;100.00;101770.16;5010365;28;20080;-65
2023/01/05 07:08:52;;;;;;;27.83;6.38;;;;;;;9.13;100.00;101762.41;5016175;28;20381;-65
2023/01/05 07:11:18;;;;;;;28.33;6.53;;;;;;;9.12;100.00;101758.94;5012190;28;20702;-65
2023/01/05 07:13:47;;;;;;;30.52;6.97;;;;;;;9.12;100.00;101769.28;5012727;28;20029;-66
2023/01/05 07:16:16;;;;;;;27.98;6.38;;;;;;;9.11;100.00;101771.78;5014508;28;20022;-65
2023/01/05 07:18:41;;;;;;;29.25;5.18;;;;;;;9.10;100.00;101759.66;5015278;28;20029;-66
2023/01/05 07:21:06;;;;;;;25.35;7.70;;;;;;;9.09;100.00;101769.13;5015961;28;20157;-65
2023/01/05 07:23:31;;;;;;;27.35;6.65;;;;;;;9.09;100.00;101763.03;5015623;28;20025;-65
2023/01/05 07:26:00;;;;;;;31.67;7.22;;;;;;;9.07;100.00;101770.72;5018129;28;20029;-65
2023/01/05 07:28:25;;;;;;;25.67;6.45;;;;;;;9.06;100.00;101775.81;5020540;28;20029;-65
2023/01/05 07:30:51;;;;;;;34.13;5.88;;;;;;;9.06;100.00;101779.31;5029095;28;20037;-65
2023/01/05 07:33:17;;;;;;;29.17;6.65;;;;;;;9.06;100.00;101783.56;5024810;28;20037;-65
2023/01/05 07:35:42;;;;;;;37.25;6.88;;;;;;;9.05;100.00;101782.69;5024287;28;20025;-66
2023/01/05 07:38:08;;;;;;;28.35;6.07;;;;;;;9.05;100.00;101777.50;5016516;28;20017;-65
2023/01/05 07:40:34;;;;;;;30.50;5.75;;;;;;;9.04;100.00;101782.59;5015055;28;20067;-65
2023/01/05 07:42:59;;;;;;;36.55;7.00;;;;;;;9.05;100.00;101789.56;5011243;28;20040;-65
2023/01/05 07:45:25;;;;;;;25.92;6.10;;;;;;;9.05;100.00;101800.78;5022987;28;20025;-65
2023/01/05 07:47:50;;;;;;;32.20;8.00;;;;;;;9.05;100.00;101792.16;5017884;28;20033;-65
2023/01/05 07:50:15;;;;;;;35.33;6.03;;;;;;;9.04;100.00;101796.44;5019983;28;20021;-65
2023/01/05 07:52:41;;;;;;;28.05;6.32;;;;;;;9.03;100.00;101794.63;5016747;28;20064;-65
2023/01/05 07:55:07;;;;;;;28.23;6.85;;;;;;;9.04;100.00;101799.00;5020145;28;20137;-65
2023/01/05 07:57:32;;;;;;;33.70;6.85;;;;;;;9.03;100.00;101799.81;5020237;28;20052;-66
2023/01/05 07:59:57;;;;;;;36.20;6.50;;;;;;;9.03;100.00;101799.81;5016227;28;20109;-66
2023/01/05 08:02:22;;;;;;;31.02;6.40;;;;;;;9.05;100.00;101810.25;5019824;28;20025;-65
2023/01/05 08:04:48;;;;;;;34.22;7.78;;;;;;;9.03;100.00;101811.88;5018651;28;20040;-66
2023/01/05 08:07:14;;;;;;;37.33;8.20;;;;;;;9.07;100.00;101811.19;5021771;28;20407;-66
2023/01/05 08:12:24;;;;;;;30.55;6.68;;;;;;;9.05;100.00;101816.28;5013485;28;20131;-65
2023/01/05 08:14:49;;;;;;;33.53;6.75;;;;;;;9.05;100.00;101823.19;5016177;28;20460;-66
2023/01/05 08:17:15;;;;;;;26.10;5.90;;;;;;;9.05;100.00;101826.63;5016149;28;20029;-65
2023/01/05 08:19:40;;;;;;;30.55;6.07;;;;;;;9.06;100.00;101824.94;5010546;28;20076;-65
2023/01/05 08:22:05;;;;;;;25.27;5.72;;;;;;;9.06;100.00;101832.72;5016144;28;20028;-66
2023/01/05 08:24:30;;;;;;;27.58;6.05;;;;;;;9.06;100.00;101838.78;5015251;28;20057;-65
2023/01/05 08:26:56;;;;;;;32.17;6.53;;;;;;;9.07;100.00;101839.63;5015960;28;20470;-65
2023/01/05 08:29:21;;;;;;;31.15;6.32;;;;;;;9.07;100.00;101835.38;5015971;28;20475;-65
2023/01/05 08:31:46;;;;;;;32.55;6.18;;;;;;;9.08;100.00;101837.16;5015966;28;20030;-65
2023/01/05 08:34:12;;;;;;;24.08;5.82;;;;;;;9.09;100.00;101838.94;5010429;28;20481;-65
2023/01/05 08:36:38;;;;;;;28.08;6.07;;;;;;;9.10;100.00;101842.41;5024436;28;20036;-65
2023/01/05 08:39:04;;;;;;;28.02;6.72;;;;;;;9.08;100.00;101834.59;5021673;28;20075;-65
2023/01/05 08:41:32;;;;;;;26.80;6.05;;;;;;;9.10;100.00;101848.47;5010282;28;20034;-65
2023/01/05 08:43:59;;;;;;;29.35;7.55;;;;;;;9.09;100.00;101846.69;5012762;28;20482;-65
2023/01/05 08:46:29;;;;;;;24.17;5.38;;;;;;;9.13;100.00;101853.81;5015717;28;20038;-66
2023/01/05 08:48:57;;;;;;;23.63;5.53;;;;;;;9.13;100.00;101853.81;5015937;28;20028;-65
2023/01/05 08:51:23;;;;;;;26.88;5.65;;;;;;;9.15;100.00;101859.06;5014499;28;20025;-65
2023/01/05 08:53:49;;;;;;;27.48;5.18;;;;;;;9.17;100.00;101867.81;5011127;28;20018;-65
2023/01/05 08:56:14;;;;;;;26.67;5.82;;;;;;;9.19;100.00;101870.47;5013175;28;20026;-65
2023/01/05 08:58:40;;;;;;;29.20;6.00;;;;;;;9.19;100.00;101873.94;5007688;28;20026;-66
2023/01/05 09:01:10;;;;;;;31.92;6.57;;;;;;;9.22;100.00;101874.13;5007295;28;20068;-65
2023/01/05 09:03:36;;;;;;;28.90;6.88;;;;;;;9.24;100.00;101872.50;5013546;28;20115;-65
2023/01/05 09:06:03;;;;;;;27.42;7.15;;;;;;;9.25;100.00;101875.97;5009608;28;20030;-65
2023/01/05 09:08:29;;;;;;;35.67;6.70;;;;;;;9.26;100.00;101885.53;5013495;28;20128;-65
2023/01/05 09:11:04;;;;;;;33.75;6.18;;;;;;;9.27;100.00;101882.13;5022016;28;20384;-65
2023/01/05 09:13:29;;;;;;;19.58;6.00;;;;;;;9.28;100.00;101883.91;5013720;28;20033;-65
2023/01/05 09:15:54;;;;;;;37.47;7.45;;;;;;;9.31;100.00;101894.41;5020331;28;20040;-65
2023/01/05 09:18:19;;;;;;;31.52;6.63;;;;;;;9.30;100.00;101897.78;5027513;28;20040;-65
2023/01/05 09:20:54;;;;;;;30.17;7.60;;;;;;;9.31;100.00;101894.41;5018559;28;20038;-65
2023/01/05 09:23:19;;;;;;;21.45;5.72;;;;;;;9.33;100.00;101897.97;5013289;28;20544;-65
2023/01/05 09:25:44;;;;;;;28.45;7.05;;;;;;;9.35;100.00;101900.66;5024087;28;20033;-65
2023/01/05 09:28:09;;;;;;;24.05;5.25;;;;;;;9.38;100.00;101903.38;5021119;28;20393;-65
2023/01/05 09:30:35;;;;;;;36.75;6.68;;;;;;;9.41;100.00;101898.38;5024569;28;20029;-66
2023/01/05 09:33:00;;;;;;;27.20;5.55;;;;;;;9.42;100.00;101905.34;5023645;28;20031;-65
2023/01/05 09:35:26;;;;;;;29.65;7.00;;;;;;;9.44;100.00;101905.41;5023778;28;20030;-65
2023/01/05 09:37:51;;;;;;;24.23;6.80;;;;;;;9.45;100.00;101914.94;5023987;28;20034;-66
2023/01/05 09:40:16;;;;;;;24.65;5.30;;;;;;;9.46;100.00;101919.34;5023077;28;20394;-65
2023/01/05 09:42:45;;;;;;;26.58;6.45;;;;;;;9.48;100.00;101918.59;5022612;28;20025;-65
2023/01/05 09:45:14;;;;;;;22.95;5.57;;;;;;;9.51;100.00;101923.06;5022646;28;20040;-65
2023/01/05 09:47:45;;;;;;;27.38;5.97;;;;;;;9.51;100.00;101923.06;5021670;28;20033;-66
2023/01/05 09:50:31;;;;;;;28.15;5.18;;;;;;;9.51;100.00;101920.47;5020854;28;20384;-66
2023/01/05 09:52:58;;;;;;;25.90;6.78;;;;;;;9.52;100.00;101930.00;5018741;28;20039;-65
2023/01/05 09:55:27;;;;;;;26.60;5.55;;;;;;;9.51;100.00;101928.22;5022061;28;20552;-65
2023/01/05 09:57:58;;;;;;;27.00;5.47;;;;;;;9.48;100.00;101923.78;5021901;28;20439;-65
2023/01/05 10:00:25;;;;;;;26.67;6.78;;;;;;;9.46;100.00;101925.38;5024177;28;20933;-65
2023/01/05 10:03:01;;;;;;;31.75;5.80;;;;;;;9.45;100.00;101927.88;5022421;28;20465;-65
2023/01/05 10:05:28;;;;;;;33.03;7.97;;;;;;;9.45;100.00;101933.06;5022503;28;20512;-66
2023/01/05 10:08:03;;;;;;;27.83;6.65;;;;;;;9.45;100.00;101940.81;5023889;28;20028;-66
2023/01/05 10:13:52;;;;;;;25.85;5.20;;;;;;;9.53;100.00;101943.84;5023003;28;20099;-66
2023/01/05 10:16:17;;;;;;;28.95;6.20;;;;;;;9.53;100.00;101939.56;5023038;28;20040;-66
2023/01/05 10:18:42;;;;;;;33.72;6.00;;;;;;;9.56;100.00;101942.31;5020736;28;20029;-66
2023/01/05 10:21:19;;;;;;;28.33;6.13;;;;;;;9.55;100.00;101950.84;5021553;28;20057;-66
2023/01/05 10:24:03;;;;;;;24.77;5.80;;;;;;;9.56;100.00;101942.31;5020685;28;20017;-66
2023/01/05 10:26:43;;;;;;;36.83;7.50;;;;;;;9.55;100.00;101950.84;5023608;28;20045;-66
2023/01/05 10:29:12;;;;;;;27.17;6.38;;;;;;;9.57;100.00;101964.78;5020447;28;20103;-66
2023/01/05 10:31:49;;;;;;;27.63;6.18;;;;;;;9.57;100.00;101957.00;5020325;28;20029;-66
2023/01/05 10:34:22;;;;;;;29.02;6.28;;;;;;;9.58;100.00;101964.00;5018816;28;20478;-66
2023/01/05 10:37:08;;;;;;;33.38;7.55;;;;;;;9.60;100.00;101956.31;5018049;28;20076;-66
2023/01/05 10:40:07;;;;;;;35.88;7.78;;;;;;;9.63;100.00;101959.03;5016810;28;20115;-63
2023/01/05 10:43:02;;;;;;;23.15;5.28;;;;;;;9.68;100.00;101957.59;5020442;28;20055;-66
2023/01/05 10:45:29;;;;;;;34.25;7.07;;;;;;;9.72;100.00;101953.47;5022301;28;20034;-67
2023/01/05 10:47:55;;;;;;;26.92;5.95;;;;;;;9.75;100.00;101948.44;5022208;28;20029;-66
2023/01/05 10:50:35;;;;;;;26.48;6.07;;;;;;;9.78;100.00;101959.00;5020813;28;20083;-66
2023/01/05 10:53:21;;;;;;;31.23;7.75;;;;;;;9.81;100.00;101953.97;5019529;28;20041;-66
2023/01/05 10:55:57;;;;;;;25.75;5.75;;;;;;;9.87;100.00;101955.09;5017495;28;20564;-66
2023/01/05 10:58:27;;;;;;;28.70;6.07;;;;;;;9.87;100.00;101963.75;5013659;28;20442;-66
2023/01/05 11:01:04;;;;;;;25.90;6.10;;;;;;;9.88;100.00;101950.00;5015511;28;20041;-66
2023/01/05 11:03:38;;;;;;;25.52;5.78;;;;;;;9.90;100.00;101956.16;5018055;28;20034;-66
2023/01/05 11:06:04;;;;;;;31.60;7.28;;;;;;;9.89;100.00;101972.50;5019165;28;20602;-66
2023/01/05 11:08:31;;;;;;;32.67;6.68;;;;;;;9.91;100.00;101967.41;5019941;28;20115;-66
2023/01/05 11:11:06;;;;;;;28.92;7.50;;;;;;;9.94;100.00;101971.06;5018122;28;20447;-66
2023/01/05 11:13:48;;;;;;;21.92;5.65;;;;;;;9.98;100.00;101966.91;5018400;28;20112;-66
2023/01/05 11:16:19;;;;;;;29.15;6.72;;;;;;;10.04;100.00;101962.03;5021212;28;20029;-66
2023/01/05 11:18:50;;;;;;;24.88;5.57;;;;;;;10.07;100.00;101964.78;5021533;28;20394;-66
2023/01/05 11:21:19;;;;;;;25.20;6.82;;;;;;;10.11;100.00;101964.97;5022839;28;20639;-66
2023/01/05 11:23:56;;;;;;;29.05;7.55;;;;;;;10.15;100.00;101970.38;5016062;28;20091;-66
2023/01/05 11:26:21;;;;;;;26.58;6.80;;;;;;;10.17;100.00;101976.53;5022293;28;20474;-67
2023/01/05 11:28:57;;;;;;;31.90;6.95;;;;;;;10.19;100.00;101966.25;5016574;28;20041;-66
2023/01/05 11:31:26;;;;;;;26.38;6.32;;;;;;;10.19;100.00;101966.25;5029417;28;20021;-66
2023/01/05 11:33:57;;;;;;;28.33;5.90;;;;;;;10.17;100.00;101958.41;5013221;28;20531;-66
2023/01/05 11:36:23;;;;;;;25.40;6.72;;;;;;;10.13;100.00;101953.00;5009714;28;20084;-66
2023/01/05 11:38:54;;;;;;;27.10;6.40;;;;;;;10.08;100.00;101951.06;5012913;28;20033;-66
2023/01/05 11:41:24;;;;;;;33.38;7.25;;;;;;;10.03;100.00;101949.91;5021269;28;20033;-67
2023/01/05 11:43:53;;;;;;;31.63;7.20;;;;;;;9.99;100.00;101953.16;5012319;28;20030;-66
2023/01/05 11:46:19;;;;;;;39.50;8.10;;;;;;;9.94;100.00;101952.03;5013784;28;20458;-66
2023/01/05 11:48:53;;;;;;;26.80;6.50;;;;;;;9.90;100.00;101953.56;5011346;28;20036;-66
2023/01/05 11:51:36;;;;;;;25.92;6.53;;;;;;;9.89;100.00;101953.47;5010093;28;20057;-66
2023/01/05 11:54:01;;;;;;;31.42;7.43;;;;;;;9.89;100.00;101953.47;5012602;28;20033;-66
2023/01/05 11:56:27;;;;;;;30.38;6.53;;;;;;;9.90;100.00;101947.47;5006103;28;20037;-66
2023/01/05 11:58:54;;;;;;;31.50;7.05;;;;;;;9.88;100.00;101933.56;5008393;28;20057;-66